Weather at London Stansted Airport

Public forecast

Using degrees Celsius for public forecast. Weather courtesy of forecast.io.

Current aviation weather report (METAR) for London Stansted Airport

Retrieved 2021/01/23 13:20 UTC (0 seconds ago):

EGSS 231320Z AUTO 30004KT 260V330 9999 OVC005 02/01 Q0994

Aviation forecast (TAF) for London Stansted Airport

Retrieved 2021/01/23 12:15 UTC (58 minutes ago):

TAF EGSS 231105Z 2312/2418 23007KT 9999 FEW035 BECMG 2314/2317 29010KT PROB30 TEMPO 2314/2319 1500 SHSN BKN007 PROB30 2400/2406 4000 BR BECMG 2409/2412 12005KT PROB40 TEMPO 2414/2418 2000 SN BKN002